createdAt,value
2019-05-15T00:00:43.714Z,19.42
2019-05-15T00:03:10.527Z,19.42
2019-05-15T00:05:39.043Z,19.42
2019-05-15T00:08:08.869Z,19.42
2019-05-15T00:10:34.703Z,19.42
2019-05-15T00:13:01.541Z,19.42
2019-05-15T00:15:28.438Z,19.43
2019-05-15T00:17:55.262Z,19.42
2019-05-15T00:20:22.066Z,19.42
2019-05-15T00:22:49.002Z,19.43
2019-05-15T00:25:16.038Z,19.42
2019-05-15T00:27:42.847Z,19.42
2019-05-15T00:30:09.679Z,19.38
2019-05-15T00:32:38.989Z,19.41
2019-05-15T00:35:05.041Z,19.42
2019-05-15T00:37:31.984Z,19.42
2019-05-15T00:39:59.297Z,19.43
2019-05-15T00:42:28.393Z,19.42
2019-05-15T00:44:55.026Z,19.42
2019-05-15T00:47:22.007Z,19.41
2019-05-15T00:49:48.987Z,19.42
2019-05-15T00:52:17.917Z,19.42
2019-05-15T00:54:44.374Z,19.42
2019-05-15T00:57:11.190Z,19.42
2019-05-15T00:59:38.978Z,19.42
2019-05-15T01:02:08.526Z,19.42
2019-05-15T01:04:34.560Z,19.42
2019-05-15T01:07:01.409Z,19.41
2019-05-15T01:09:29.193Z,19.41
2019-05-15T01:11:56.169Z,19.42
2019-05-15T01:14:23.056Z,19.42
2019-05-15T01:16:49.970Z,19.42
2019-05-15T01:19:18.521Z,19.42
2019-05-15T01:21:45.936Z,19.41
2019-05-15T01:24:14.074Z,19.41
2019-05-15T01:26:41.005Z,19.42
2019-05-15T01:29:09.090Z,19.42
2019-05-15T01:31:38.034Z,19.42
2019-05-15T01:34:05.061Z,19.42
2019-05-15T01:36:32.181Z,19.41
2019-05-15T01:38:59.064Z,19.42
2019-05-15T01:41:28.048Z,19.42
2019-05-15T01:43:54.430Z,19.42
2019-05-15T01:46:21.233Z,19.42
2019-05-15T01:48:49.312Z,19.41
2019-05-15T01:51:18.361Z,19.42
2019-05-15T01:53:44.929Z,19.41
2019-05-15T01:56:11.724Z,19.42
2019-05-15T01:58:38.566Z,19.41
2019-05-15T02:01:07.963Z,19.41
2019-05-15T02:03:34.177Z,19.41
2019-05-15T02:06:01.019Z,19.41
2019-05-15T02:08:28.528Z,19.41
2019-05-15T02:10:58.609Z,19.42
2019-05-15T02:13:24.202Z,19.42
2019-05-15T02:15:51.012Z,19.42
2019-05-15T02:18:19.212Z,19.42
2019-05-15T02:20:46.185Z,19.41
2019-05-15T02:23:13.049Z,19.42
2019-05-15T02:25:40.031Z,19.40
2019-05-15T02:28:09.105Z,19.42
2019-05-15T02:30:39.632Z,19.41
2019-05-15T02:33:04.281Z,19.42
2019-05-15T02:35:31.155Z,19.41
2019-05-15T02:37:59.843Z,19.42
2019-05-15T02:40:29.163Z,19.41
2019-05-15T02:42:54.987Z,19.41
2019-05-15T02:45:21.835Z,19.41
2019-05-15T02:47:49.276Z,19.41
2019-05-15T02:50:16.156Z,19.41
2019-05-15T02:52:45.549Z,19.41
2019-05-15T02:55:11.670Z,19.42
2019-05-15T02:57:39.640Z,19.41
2019-05-15T03:00:10.360Z,19.42
2019-05-15T03:02:35.313Z,19.41
2019-05-15T03:05:02.389Z,19.41
2019-05-15T03:07:29.675Z,19.41
2019-05-15T03:09:59.738Z,19.41
2019-05-15T03:12:25.122Z,19.41
2019-05-15T03:14:51.944Z,19.41
2019-05-15T03:17:19.135Z,19.41
2019-05-15T03:19:49.487Z,19.41
2019-05-15T03:22:14.771Z,19.41
2019-05-15T03:24:41.633Z,19.41
2019-05-15T03:27:09.176Z,19.41
2019-05-15T03:29:36.172Z,19.40
2019-05-15T03:32:18.216Z,19.41
2019-05-15T03:34:38.157Z,19.41
2019-05-15T03:37:03.603Z,19.41
2019-05-15T03:39:29.581Z,19.41
2019-05-15T03:41:58.862Z,19.41
2019-05-15T03:44:28.435Z,19.42
2019-05-15T03:46:53.756Z,19.41
2019-05-15T03:49:20.597Z,19.41
2019-05-15T03:51:50.206Z,19.42
2019-05-15T03:54:18.715Z,19.41
2019-05-15T03:56:44.644Z,19.42
2019-05-15T03:59:11.491Z,19.41
2019-05-15T04:01:43.318Z,19.41
2019-05-15T04:04:09.442Z,19.40
2019-05-15T04:06:35.393Z,19.41
2019-05-15T04:09:02.218Z,19.41
2019-05-15T04:11:29.504Z,19.40
2019-05-15T04:13:59.215Z,19.40
2019-05-15T04:16:25.236Z,19.40
2019-05-15T04:18:52.071Z,19.41
2019-05-15T04:21:19.958Z,19.41
2019-05-15T04:23:49.933Z,19.41
2019-05-15T04:26:15.859Z,19.41
2019-05-15T04:28:42.714Z,19.41
2019-05-15T04:31:09.648Z,19.41
2019-05-15T04:33:39.531Z,19.40
2019-05-15T04:36:05.083Z,19.41
2019-05-15T04:38:31.954Z,19.41
2019-05-15T04:40:59.216Z,19.41
2019-05-15T04:43:29.163Z,19.41
2019-05-15T04:45:54.703Z,19.41
2019-05-15T04:48:21.587Z,19.40
2019-05-15T04:50:49.718Z,19.41
2019-05-15T04:53:19.233Z,19.41
2019-05-15T04:55:45.384Z,19.41
2019-05-15T04:58:12.601Z,19.40
2019-05-15T05:00:40.009Z,19.41
2019-05-15T05:03:09.849Z,19.41
2019-05-15T05:05:38.616Z,19.40
2019-05-15T05:08:04.174Z,19.41
2019-05-15T05:10:31.064Z,19.41
2019-05-15T05:12:59.139Z,19.40
2019-05-15T05:15:26.136Z,19.40
2019-05-15T05:17:52.986Z,19.40
2019-05-15T05:20:19.790Z,19.39
2019-05-15T05:22:48.335Z,19.40
2019-05-15T05:25:15.335Z,19.40
2019-05-15T05:27:42.256Z,19.40
2019-05-15T05:30:09.170Z,19.40
2019-05-15T05:32:38.731Z,19.40
2019-05-15T05:35:04.566Z,19.40
2019-05-15T05:37:31.370Z,19.40
2019-05-15T05:39:58.194Z,19.39
2019-05-15T05:42:25.068Z,19.39
2019-05-15T05:44:51.867Z,19.40
2019-05-15T05:47:18.656Z,19.40
2019-05-15T05:49:45.500Z,19.40
2019-05-15T05:52:12.324Z,19.39
2019-05-15T05:54:39.140Z,19.40
2019-05-15T05:57:06.044Z,19.39
2019-05-15T05:59:32.879Z,19.41
2019-05-15T06:01:59.716Z,19.40
2019-05-15T06:04:27.933Z,19.40
2019-05-15T06:07:14.100Z,19.39
2019-05-15T06:09:23.626Z,19.42
2019-05-15T06:11:50.419Z,17.96
2019-05-15T06:14:18.375Z,17.23
2019-05-15T06:16:45.264Z,16.82
2019-05-15T06:19:12.046Z,16.74
2019-05-15T06:21:52.501Z,16.61
2019-05-15T06:24:12.940Z,16.45
2019-05-15T06:26:35.858Z,16.33
2019-05-15T06:29:02.645Z,16.64
2019-05-15T06:31:29.412Z,16.39
2019-05-15T06:33:58.100Z,16.45
2019-05-15T06:36:24.716Z,16.44
2019-05-15T06:38:51.561Z,16.26
2019-05-15T06:41:18.422Z,16.94
2019-05-15T06:43:45.323Z,17.66
2019-05-15T06:46:12.100Z,18.02
2019-05-15T06:48:38.887Z,18.20
2019-05-15T06:51:05.660Z,18.31
2019-05-15T06:53:32.444Z,18.39
2019-05-15T06:55:59.231Z,18.43
2019-05-15T06:58:26.045Z,18.48
2019-05-15T07:00:52.819Z,18.52
2019-05-15T07:03:25.223Z,18.56
2019-05-15T07:05:50.775Z,18.58
2019-05-15T07:08:18.174Z,18.62
2019-05-15T07:10:45.265Z,18.64
2019-05-15T07:13:12.046Z,18.66
2019-05-15T07:15:38.828Z,18.69
2019-05-15T07:18:05.674Z,18.70
2019-05-15T07:20:32.428Z,18.72
2019-05-15T07:22:59.242Z,18.73
2019-05-15T07:25:26.032Z,18.76
2019-05-15T07:27:52.801Z,18.77
2019-05-15T07:30:19.574Z,18.79
2019-05-15T07:32:48.443Z,18.80
2019-05-15T07:35:14.866Z,18.81
2019-05-15T07:37:41.628Z,18.83
2019-05-15T07:40:08.523Z,18.84
2019-05-15T07:42:38.323Z,18.84
2019-05-15T07:45:03.909Z,18.86
2019-05-15T07:47:30.690Z,18.88
2019-05-15T07:49:58.897Z,18.88
2019-05-15T07:52:28.651Z,18.89
2019-05-15T07:54:54.594Z,18.90
2019-05-15T07:57:21.385Z,18.90
2019-05-15T07:59:48.154Z,18.91
2019-05-15T08:02:14.935Z,18.91
2019-05-15T08:04:41.715Z,18.91
2019-05-15T08:07:09.173Z,18.91
2019-05-15T08:09:36.062Z,18.91
2019-05-15T08:12:03.427Z,18.92
2019-05-15T08:14:30.279Z,18.93
2019-05-15T08:16:59.165Z,18.93
2019-05-15T08:19:25.581Z,18.93
2019-05-15T08:21:52.364Z,18.93
2019-05-15T08:24:19.206Z,18.94
2019-05-15T08:26:48.496Z,18.96
2019-05-15T08:29:14.526Z,18.97
2019-05-15T08:31:41.344Z,18.98
2019-05-15T08:34:13.574Z,19.00
2019-05-15T08:36:38.518Z,19.02
2019-05-15T08:39:05.554Z,19.02
2019-05-15T08:41:32.312Z,19.04
2019-05-15T08:43:59.194Z,19.04
2019-05-15T08:46:27.914Z,19.04
2019-05-15T08:48:54.450Z,19.05
2019-05-15T08:51:21.240Z,19.06
2019-05-15T08:53:48.793Z,19.06
2019-05-15T08:56:15.917Z,19.07
2019-05-15T08:58:42.700Z,19.08
2019-05-15T09:01:10.017Z,19.08
2019-05-15T09:03:38.074Z,19.10
2019-05-15T09:06:05.028Z,19.09
2019-05-15T09:08:31.811Z,19.11
2019-05-15T09:10:58.798Z,19.11
2019-05-15T09:13:25.646Z,19.11
2019-05-15T09:15:52.423Z,19.11
2019-05-15T09:18:20.141Z,19.12
2019-05-15T09:20:49.264Z,19.12
2019-05-15T09:23:18.837Z,19.13
2019-05-15T09:25:44.406Z,19.13
2019-05-15T09:28:11.191Z,19.13
2019-05-15T09:30:39.111Z,19.14
2019-05-15T09:33:08.038Z,19.14
2019-05-15T09:35:34.654Z,19.15
2019-05-15T09:38:01.444Z,19.15
2019-05-15T09:40:42.537Z,19.16
2019-05-15T09:42:57.839Z,19.18
2019-05-15T09:45:24.776Z,19.18
2019-05-15T09:47:51.584Z,19.17
2019-05-15T09:50:19.437Z,19.20
2019-05-15T09:52:49.846Z,19.22
2019-05-15T09:55:15.036Z,19.21
2019-05-15T09:57:41.822Z,19.20
2019-05-15T10:00:09.109Z,19.24
2019-05-15T10:02:39.084Z,19.24
2019-05-15T10:05:10.420Z,19.22
2019-05-15T10:07:33.265Z,19.21
2019-05-15T10:10:00.036Z,19.22
2019-05-15T10:12:33.950Z,19.23
2019-05-15T10:14:55.385Z,19.24
2019-05-15T10:17:22.223Z,19.25
2019-05-15T10:19:49.001Z,19.24
2019-05-15T10:22:15.773Z,19.25
2019-05-15T10:24:42.550Z,19.26
2019-05-15T10:27:09.312Z,19.28
2019-05-15T10:29:36.093Z,19.27
2019-05-15T10:32:02.880Z,19.28
2019-05-15T10:34:29.652Z,19.28
2019-05-15T10:36:58.756Z,19.29
2019-05-15T10:39:24.957Z,19.31
2019-05-15T10:41:51.738Z,19.30
2019-05-15T10:44:18.559Z,19.30
2019-05-15T10:46:48.060Z,19.31
2019-05-15T10:49:13.836Z,19.30
2019-05-15T10:51:40.636Z,19.31
2019-05-15T10:54:08.550Z,19.31
2019-05-15T10:56:35.563Z,19.31
2019-05-15T10:59:02.338Z,19.32
2019-05-15T11:01:29.104Z,19.31
2019-05-15T11:03:58.662Z,19.32
2019-05-15T11:06:24.384Z,19.34
2019-05-15T11:08:51.694Z,19.35
2019-05-15T11:11:18.624Z,19.34
2019-05-15T11:13:45.422Z,19.34
2019-05-15T11:16:12.281Z,19.33
2019-05-15T11:18:39.565Z,19.33
2019-05-15T11:21:08.274Z,19.33
2019-05-15T11:23:34.950Z,19.34
2019-05-15T11:26:01.727Z,19.33
2019-05-15T11:28:31.945Z,19.33
2019-05-15T11:30:59.433Z,19.34
2019-05-15T11:33:25.551Z,19.37
2019-05-15T11:36:00.518Z,19.38
2019-05-15T11:38:20.892Z,19.40
2019-05-15T11:40:47.668Z,19.40
2019-05-15T11:43:14.485Z,19.40
2019-05-15T11:45:41.313Z,19.44
2019-05-15T11:48:09.053Z,19.44
2019-05-15T11:50:36.048Z,19.48
2019-05-15T11:53:02.832Z,19.51
2019-05-15T11:55:29.626Z,19.54
2019-05-15T11:57:56.479Z,19.55
2019-05-15T12:00:27.061Z,19.53
2019-05-15T12:02:58.995Z,19.52
2019-05-15T12:05:25.951Z,19.52
2019-05-15T12:07:53.250Z,19.49
2019-05-15T12:10:20.471Z,19.50
2019-05-15T12:12:49.672Z,19.50
2019-05-15T12:15:19.120Z,19.48
2019-05-15T12:17:48.302Z,19.48
2019-05-15T12:20:14.634Z,19.47
2019-05-15T12:22:42.985Z,19.46
2019-05-15T12:25:10.897Z,19.45
2019-05-15T12:27:40.089Z,19.44
2019-05-15T12:30:09.972Z,19.43
2019-05-15T12:32:36.710Z,19.43
2019-05-15T12:35:04.415Z,19.43
2019-05-15T12:37:31.540Z,19.43
2019-05-15T12:59:52.318Z,19.43
2019-05-15T13:02:19.587Z,19.43
2019-05-15T13:04:46.610Z,19.42
2019-05-15T13:07:16.727Z,19.43
2019-05-15T13:09:42.431Z,19.43
2019-05-15T13:12:10.330Z,19.42
2019-05-15T13:14:38.929Z,19.43
2019-05-15T13:17:06.123Z,19.43
2019-05-15T13:19:33.117Z,19.43
2019-05-15T13:22:00.126Z,19.42
2019-05-15T13:24:28.434Z,19.42
2019-05-15T13:26:55.719Z,19.41
2019-05-15T13:29:22.941Z,19.42
2019-05-15T13:31:50.057Z,19.41
2019-05-15T13:34:19.603Z,19.42
2019-05-15T13:36:48.380Z,19.42
2019-05-15T13:39:14.354Z,19.42
2019-05-15T13:41:41.471Z,19.42
2019-05-15T13:44:09.007Z,19.43
2019-05-15T13:46:38.092Z,19.42
2019-05-15T13:49:08.226Z,19.41
2019-05-15T13:51:38.179Z,19.42
2019-05-15T13:54:04.406Z,19.42
2019-05-15T13:56:31.337Z,19.42
2019-05-15T13:58:58.833Z,19.42
2019-05-15T14:01:28.434Z,19.42
2019-05-15T14:03:54.539Z,19.41
2019-05-15T14:06:21.697Z,19.42
2019-05-15T14:08:48.928Z,19.42
2019-05-15T14:11:20.652Z,19.42
2019-05-15T14:13:44.858Z,19.42
2019-05-15T14:16:12.903Z,19.43
2019-05-15T14:18:39.897Z,19.42
2019-05-15T14:21:08.951Z,19.41
2019-05-15T14:23:38.007Z,19.42
2019-05-15T14:26:17.557Z,19.42
2019-05-15T14:28:33.222Z,19.42
2019-05-15T14:31:00.727Z,19.42
2019-05-15T14:33:29.268Z,19.42
2019-05-15T14:35:57.774Z,19.42
2019-05-15T14:38:28.880Z,19.42
2019-05-15T14:40:55.211Z,19.43
2019-05-15T14:43:22.365Z,19.42
2019-05-15T14:45:49.323Z,19.41
2019-05-15T14:48:18.896Z,19.42
2019-05-15T14:50:47.525Z,19.43
2019-05-15T14:53:13.957Z,19.42
2019-05-15T14:55:43.944Z,19.42
2019-05-15T14:58:09.380Z,19.43
2019-05-15T15:00:40.769Z,19.42
2019-05-15T15:03:05.157Z,19.42
2019-05-15T15:05:32.288Z,19.42
2019-05-15T15:07:59.135Z,19.42
2019-05-15T15:10:25.930Z,19.43
2019-05-15T15:12:52.720Z,19.42
2019-05-15T15:15:19.504Z,19.42
2019-05-15T15:17:49.072Z,19.44
2019-05-15T15:20:14.820Z,19.44
2019-05-15T15:22:41.897Z,19.45
2019-05-15T15:25:09.636Z,19.45
2019-05-15T15:27:38.645Z,19.42
2019-05-15T15:30:05.225Z,19.44
2019-05-15T15:32:32.000Z,19.43
2019-05-15T15:34:58.869Z,19.41
2019-05-15T15:37:25.632Z,19.40
2019-05-15T15:39:53.286Z,19.40
2019-05-15T15:42:20.053Z,19.39
2019-05-15T15:44:48.850Z,19.38
2019-05-15T15:47:15.346Z,19.39
2019-05-15T15:49:42.122Z,19.39
2019-05-15T15:52:08.990Z,19.39
2019-05-15T15:54:35.774Z,19.39
2019-05-15T15:57:02.555Z,19.39
2019-05-15T15:59:29.606Z,19.39
2019-05-15T16:01:56.387Z,19.38
2019-05-15T16:04:23.156Z,19.38
2019-05-15T16:06:49.947Z,19.38
2019-05-15T16:09:18.650Z,19.38
2019-05-15T16:11:45.216Z,19.38
2019-05-15T16:14:12.012Z,19.38
2019-05-15T16:16:38.799Z,19.39
2019-05-15T16:19:05.579Z,19.38
2019-05-15T16:21:32.380Z,19.38
2019-05-15T16:23:59.144Z,19.38
2019-05-15T16:26:25.934Z,19.37
2019-05-15T16:28:52.700Z,19.37
2019-05-15T16:31:19.468Z,19.37
2019-05-15T16:33:48.072Z,19.36
2019-05-15T16:36:14.753Z,19.37
2019-05-15T16:38:41.536Z,19.38
2019-05-15T16:41:08.982Z,19.38
2019-05-15T16:43:37.848Z,19.37
2019-05-15T16:46:04.505Z,19.38
2019-05-15T16:48:31.295Z,19.36
2019-05-15T16:50:58.166Z,19.38
2019-05-15T16:53:25.042Z,19.42
2019-05-15T16:55:52.152Z,19.43
2019-05-15T16:58:19.438Z,19.44
2019-05-15T17:00:49.472Z,19.43
2019-05-15T17:03:15.221Z,19.42
2019-05-15T17:05:42.210Z,19.41
2019-05-15T17:08:09.294Z,19.41
2019-05-15T17:10:38.565Z,19.41
2019-05-15T17:13:04.741Z,19.41
2019-05-15T17:15:31.685Z,19.40
2019-05-15T17:17:58.483Z,19.40
2019-05-15T17:20:25.258Z,19.40
2019-05-15T17:22:52.048Z,19.40
2019-05-15T17:25:18.828Z,19.40
2019-05-15T17:27:45.625Z,19.40
2019-05-15T17:30:12.417Z,19.40
2019-05-15T17:32:40.818Z,19.39
2019-05-15T17:35:09.839Z,19.39
2019-05-15T17:37:38.028Z,19.39
2019-05-15T17:40:04.722Z,19.39
2019-05-15T17:42:31.499Z,19.38
2019-05-15T17:44:58.295Z,19.39
2019-05-15T17:47:25.186Z,19.38
2019-05-15T17:49:51.993Z,19.38
2019-05-15T17:52:18.764Z,19.39
2019-05-15T17:54:45.898Z,19.39
2019-05-15T17:57:12.746Z,19.39
2019-05-15T17:59:39.522Z,19.39
2019-05-15T18:02:08.485Z,19.38
2019-05-15T18:04:34.814Z,19.38
2019-05-15T18:07:01.586Z,19.38
2019-05-15T18:09:28.375Z,19.38
2019-05-15T18:11:55.176Z,19.38
2019-05-15T18:14:22.363Z,19.38
2019-05-15T18:16:50.913Z,19.39
2019-05-15T18:19:18.767Z,19.37
2019-05-15T18:21:45.700Z,19.38
2019-05-15T18:24:12.478Z,19.37
2019-05-15T18:26:39.252Z,19.37
2019-05-15T18:29:06.028Z,19.38
2019-05-15T18:31:32.809Z,19.37
2019-05-15T18:33:59.959Z,19.37
2019-05-15T18:36:28.524Z,19.37
2019-05-15T18:38:58.830Z,19.38
2019-05-15T18:41:25.628Z,19.37
2019-05-15T18:43:52.467Z,19.38
2019-05-15T18:46:19.252Z,19.40
2019-05-15T18:48:46.022Z,19.45
2019-05-15T18:51:12.800Z,19.45
2019-05-15T18:53:39.858Z,19.44
2019-05-15T18:56:08.781Z,19.48
2019-05-15T18:58:35.244Z,19.47
2019-05-15T19:01:02.324Z,19.49
2019-05-15T19:03:29.220Z,19.48
2019-05-15T19:05:58.279Z,19.47
2019-05-15T19:08:25.404Z,19.45
2019-05-15T19:10:52.412Z,19.44
2019-05-15T19:13:19.728Z,19.42
2019-05-15T19:15:48.381Z,19.43
2019-05-15T19:18:15.381Z,19.42
2019-05-15T19:20:42.244Z,19.43
2019-05-15T19:23:09.126Z,19.42
2019-05-15T19:25:36.234Z,19.42
2019-05-15T19:28:03.149Z,19.42
2019-05-15T19:30:30.205Z,19.42
2019-05-15T19:32:58.457Z,19.41
2019-05-15T19:35:27.865Z,19.42
2019-05-15T19:37:54.493Z,19.42
2019-05-15T19:40:21.523Z,19.42
2019-05-15T19:42:48.889Z,19.42
2019-05-15T19:45:15.724Z,19.43
2019-05-15T19:47:42.548Z,19.42
2019-05-15T19:50:09.482Z,19.43
2019-05-15T19:52:36.688Z,19.42
2019-05-15T19:55:03.588Z,19.42
2019-05-15T19:57:31.927Z,19.42
2019-05-15T19:59:58.944Z,19.45
2019-05-15T20:02:25.935Z,19.48
2019-05-15T20:04:52.737Z,19.48
2019-05-15T20:07:19.704Z,19.47
2019-05-15T20:09:47.725Z,19.45
2019-05-15T20:12:14.635Z,19.47
2019-05-15T20:14:41.933Z,19.44
2019-05-15T20:17:09.252Z,19.45
2019-05-15T20:19:37.850Z,19.44
2019-05-15T20:22:04.771Z,19.43
2019-05-15T20:24:31.713Z,19.44
2019-05-15T20:26:58.739Z,19.44
2019-05-15T20:29:25.705Z,19.43
2019-05-15T20:31:55.780Z,19.44
2019-05-15T20:34:21.310Z,19.43
2019-05-15T20:36:48.797Z,19.43
2019-05-15T20:39:16.087Z,19.43
2019-05-15T20:41:42.950Z,19.43
2019-05-15T20:44:09.799Z,19.43
2019-05-15T20:46:38.967Z,19.43
2019-05-15T20:49:05.266Z,19.43
2019-05-15T20:51:32.175Z,19.44
2019-05-15T20:53:59.168Z,19.42
2019-05-15T20:56:28.214Z,19.43
2019-05-15T20:58:54.758Z,19.43
2019-05-15T21:01:21.647Z,19.43
2019-05-15T21:03:50.849Z,19.43
2019-05-15T21:06:17.870Z,19.44
2019-05-15T21:08:44.890Z,19.44
2019-05-15T21:11:12.806Z,19.44
2019-05-15T21:13:39.665Z,19.43
2019-05-15T21:16:08.334Z,19.42
2019-05-15T21:18:37.627Z,19.43
2019-05-15T21:21:05.055Z,19.43
2019-05-15T21:23:32.588Z,19.43
2019-05-15T21:25:59.580Z,19.44
2019-05-15T21:28:27.790Z,19.44
2019-05-15T21:30:55.071Z,19.43
2019-05-15T21:33:22.140Z,19.44
2019-05-15T21:35:49.406Z,19.44
2019-05-15T21:38:18.395Z,19.44
2019-05-15T21:40:44.908Z,19.43
2019-05-15T21:43:11.929Z,19.44
2019-05-15T21:45:39.844Z,19.43
2019-05-15T21:48:09.077Z,19.44
2019-05-15T21:50:36.050Z,19.43
2019-05-15T21:53:03.058Z,19.44
2019-05-15T21:55:30.361Z,19.43
2019-05-15T21:57:57.724Z,19.44
2019-05-15T22:00:28.959Z,19.44
2019-05-15T22:02:58.284Z,19.44
2019-05-15T22:05:24.774Z,19.44
2019-05-15T22:07:51.853Z,19.45
2019-05-15T22:10:19.382Z,19.42
2019-05-15T22:12:48.207Z,19.44
2019-05-15T22:15:19.054Z,19.44
2019-05-15T22:17:45.136Z,19.43
2019-05-15T22:20:12.139Z,19.44
2019-05-15T22:22:39.126Z,19.43
2019-05-15T22:25:10.884Z,19.44
2019-05-15T22:27:34.715Z,19.44
2019-05-15T22:30:01.614Z,19.44
2019-05-15T22:32:29.192Z,19.43
2019-05-15T22:35:08.943Z,19.43
2019-05-15T22:37:24.960Z,19.43
2019-05-15T22:39:51.914Z,19.43
2019-05-15T22:42:18.848Z,19.44
2019-05-15T22:44:47.817Z,19.44
2019-05-15T22:47:14.660Z,19.43
2019-05-15T22:49:41.571Z,19.42
2019-05-15T22:52:08.689Z,19.43
2019-05-15T22:54:38.298Z,19.43
2019-05-15T22:57:04.604Z,19.43
2019-05-15T22:59:31.604Z,19.43
2019-05-15T23:01:58.672Z,19.44
2019-05-15T23:04:25.565Z,19.44
2019-05-15T23:06:52.459Z,19.43
2019-05-15T23:09:19.439Z,19.44
2019-05-15T23:11:48.384Z,19.44
2019-05-15T23:14:14.852Z,19.43
2019-05-15T23:16:42.068Z,19.43
2019-05-15T23:19:08.879Z,19.43
2019-05-15T23:21:37.862Z,19.43
2019-05-15T23:24:04.431Z,19.44
2019-05-15T23:26:31.251Z,19.43
2019-05-15T23:28:58.592Z,19.44
2019-05-15T23:31:25.535Z,19.43
2019-05-15T23:33:52.439Z,19.43
2019-05-15T23:36:19.267Z,19.43
2019-05-15T23:38:48.011Z,19.43
2019-05-15T23:41:14.747Z,19.43
2019-05-15T23:43:41.676Z,19.44
2019-05-15T23:46:08.710Z,19.44
2019-05-15T23:48:38.011Z,19.43
2019-05-15T23:51:04.242Z,19.43
2019-05-15T23:53:31.265Z,19.43
2019-05-15T23:55:58.752Z,19.42
2019-05-15T23:58:25.970Z,19.44
